Flight Track Log - Related Links

Times and Time Zones

All times are in EDT time to prevent confusion due to time zone crossing. See the SWA1101 flight status page for this flight to view local times or setup timezone preferences in your user account.

Time Position Orientation Groundspeed Altitude Reporting Facility
EDT Latitude Longitude Course Direction KTS MPH feet Rate Location/Type
Tue 05:12:13 PM 35.8561 -78.8108 224° Southwest 171 197 1,400  Level Washington Center
Tue 05:12:25 PM 35.8497 -78.8183 224° Southwest 169 194 2,000 2,548 Climbing Washington Center
Tue 05:13:26 PM 35.8086 -78.8678 224° Southwest 211 243 4,500 2,671 Climbing Washington Center
Tue 05:15:09 PM 35.8350 -78.9767 287° West 247 284 9,300 2,646 Climbing Washington Center
Tue 05:16:07 PM 35.8869 -79.0531 310° West 266 306 11,600 2,370 Climbing Washington Center
Tue 05:17:08 PM 35.9553 -79.1433 313° West 304 350 14,000 2,656 Climbing Washington Center
Tue 05:18:09 PM 36.0153 -79.2283 311° West 351 404 17,000 3,277 Climbing Washington Center
Tue 05:19:07 PM 36.0664 -79.3308 302° West 356 410 20,500 2,746 Climbing Washington Center
Tue 05:20:07 PM 36.1622 -79.3997 330° Northwest 362 417 22,400 1,240 Climbing Washington Center
Tue 05:21:08 PM 36.2792 -79.4672 335° Northwest 390 449 23,000 298 Climbing Washington Center
Tue 05:22:08 PM 36.3619 -79.5436 323° Northwest 413 475 23,000 397 Level Washington Center
Tue 05:23:09 PM 36.4656 -79.6314 326° Northwest 413 475 23,800 1,279 Climbing Washington Center
Tue 05:24:10 PM 36.5583 -79.7217 322° Northwest 418 481 25,600 1,525 Climbing Washington Center
Tue 05:25:07 PM 36.6297 -79.8289 310° West 418 481 26,800 1,373 Climbing Washington Center
Tue 05:26:08 PM 36.6822 -79.9353 302° West 408 470 28,300 1,611 Climbing Washington Center
Tue 05:28:17 PM 36.8156 -80.1908 303° West 401 461 31,900 1,492 Climbing Atlanta Center
Tue 05:29:17 PM 36.8753 -80.3100 302° West 401 461 33,000 550 Climbing Atlanta Center
Tue 05:30:17 PM 36.9350 -80.4239 303° West 401 461 33,000 200 Level Atlanta Center
Tue 05:31:17 PM 37.0014 -80.5561 302° West 401 461 33,400 622 Climbing Atlanta Center
Tue 05:33:01 PM 37.1119 -80.7308 308° West 407 468 34,700 904 Climbing Indianapolis Center
Tue 05:34:03 PM 37.2400 -80.8378 326° Northwest 466 536 35,900 1,161 Climbing Indianapolis Center
Tue 05:35:05 PM 37.3478 -80.9236 328° Northwest 466 536 37,100 1,016 Climbing Indianapolis Center
Tue 05:36:07 PM 37.4581 -81.0025 330° Northwest 466 536 38,000 432 Climbing Indianapolis Center
Tue 05:37:10 PM 37.5639 -81.0836 329° Northwest 465 535 38,000  Level Indianapolis Center
Tue 05:38:12 PM 37.6919 -81.1814 329° Northwest 460 529 38,000  Level Indianapolis Center
Tue 05:39:14 PM 37.7911 -81.2706 325° Northwest 452 520 38,000  Level Indianapolis Center
Tue 05:40:16 PM 37.8819 -81.3639 321° Northwest 440 506 38,000  Level Indianapolis Center
Tue 05:41:18 PM 37.9964 -81.4822 321° Northwest 440 506 38,000  Level Indianapolis Center
Tue 05:42:20 PM 38.1156 -81.5553 334° Northwest 478 550 38,000  Level Indianapolis Center
Tue 05:43:22 PM 38.2358 -81.6242 336° Northwest 476 548 38,000  Level Indianapolis Center
Tue 05:44:24 PM 38.3475 -81.7086 329° Northwest 466 536 38,000  Level Indianapolis Center
Tue 05:45:26 PM 38.4525 -81.8017 325° Northwest 459 528 38,000  Level Indianapolis Center
Tue 05:46:28 PM 38.5394 -81.9131 315° West 442 509 38,000  Level Indianapolis Center
Tue 05:47:31 PM 38.6272 -82.0247 315° West 441 507 38,000  Level Indianapolis Center
Tue 05:48:33 PM 38.7156 -82.1375 315° West 441 507 38,000  Level Indianapolis Center
Tue 05:49:35 PM 38.8219 -82.2725 315° West 443 510 38,000  Level Indianapolis Center
Tue 05:50:37 PM 38.9094 -82.3861 315° West 446 513 38,000  Level Indianapolis Center
Tue 05:51:39 PM 38.9978 -82.5025 314° West 447 514 38,000  Level Indianapolis Center
Tue 05:52:41 PM 39.0869 -82.6158 315° West 448 516 38,000  Level Indianapolis Center
Tue 05:53:43 PM 39.1861 -82.7481 314° West 450 518 38,000  Level Indianapolis Center
Tue 05:54:45 PM 39.2750 -82.8639 315° West 450 518 38,000  Level Indianapolis Center
Tue 05:55:47 PM 39.3639 -82.9797 315° West 451 519 38,000  Level Indianapolis Center
Tue 05:56:49 PM 39.4517 -83.0964 314° West 452 520 38,000  Level Indianapolis Center
Tue 05:57:52 PM 39.5394 -83.2131 314° West 452 520 38,000  Level Indianapolis Center
Tue 05:58:54 PM 39.6281 -83.3303 314° West 453 521 38,000  Level Indianapolis Center
Tue 05:59:56 PM 39.7175 -83.4489 314° West 453 521 38,000  Level Indianapolis Center
Tue 06:00:58 PM 39.8128 -83.5764 314° West 453 521 38,000  Level Indianapolis Center
Tue 06:02:00 PM 39.8978 -83.6919 314° West 453 521 38,000  Level Indianapolis Center
Tue 06:03:02 PM 40.0036 -83.8344 314° West 453 521 38,000 -145 Level Indianapolis Center
Tue 06:04:04 PM 40.0908 -83.9542 314° West 453 521 37,700 -581 Descending Indianapolis Center
Tue 06:05:06 PM 40.1775 -84.0725 314° West 453 521 36,800 -903 Descending Indianapolis Center
Tue 06:07:10 PM 40.3506 -84.3083 314° West 452 520 34,900 -930 Descending Indianapolis Center
Tue 06:08:13 PM 40.4342 -84.4264 313° West 447 514 33,900 -1,008 Descending Indianapolis Center
Tue 06:09:15 PM 40.5367 -84.5667 314° West 447 514 32,800 -975 Descending Indianapolis Center
Tue 06:10:53 PM 40.6650 -84.7439 314° West 444 511 31,300 -677 Descending Chicago Center
Tue 06:13:23 PM 40.8667 -85.0550 311° West 441 507 30,000 -419 Descending Indianapolis Center
Tue 06:13:59 PM 40.9203 -85.1344 312° West 440 506 30,000  Level Chicago Center
Tue 06:15:01 PM 40.9997 -85.2558 311° West 439 505 30,000 -1,484 Level Chicago Center
Tue 06:17:05 PM 41.1575 -85.4975 311° West 434 499 25,400 -1,935 Descending Chicago Center
Tue 06:18:07 PM 41.2322 -85.6144 310° West 421 484 24,000 -1,161 Descending Chicago Center
Tue 06:19:09 PM 41.3078 -85.7322 311° West 416 479 23,000 -1,104 Descending Chicago Center
Tue 06:20:12 PM 41.3978 -85.8736 310° West 415 478 21,700 -1,776 Descending Chicago Center
Tue 06:21:14 PM 41.4697 -85.9850 311° West 397 457 19,300 -2,613 Descending Chicago Center
Tue 06:22:16 PM 41.5008 -86.1150 288° West 371 427 16,300 -2,758 Descending Chicago Center
Tue 06:23:18 PM 41.5117 -86.2522 276° West 371 427 13,600 -2,516 Descending Chicago Center
Tue 06:24:20 PM 41.5214 -86.3856 276° West 364 419 11,100 -1,645 Descending Chicago Center
Tue 06:25:22 PM 41.5214 -86.5189 270° West 361 415 10,200 -532 Descending Chicago Center
Tue 06:26:24 PM 41.5208 -86.6758 270° West 355 409 10,000 -194 Descending Chicago Center
Tue 06:27:26 PM 41.5228 -86.7900 271° West 293 337 9,800 -629 Descending Chicago Center
Tue 06:28:28 PM 41.5214 -86.8983 269° West 276 318 8,700 -1,016 Descending Chicago Center
Tue 06:29:30 PM 41.5197 -86.9967 269° West 266 306 7,700 -1,008 Descending Chicago Center
Tue 06:30:33 PM 41.5181 -87.1006 269° West 264 304 6,600 -1,027 Descending Chicago Center
Tue 06:32:37 PM 41.5247 -87.2956 273° West 255 293 4,500 -839 Descending Chicago Center
Tue 06:33:39 PM 41.5292 -87.3883 274° West 253 291 4,000 -242 Descending Chicago Center
Tue 06:34:41 PM 41.5344 -87.4814 274° West 253 291 4,000  Level Chicago Center
Tue 06:35:43 PM 41.5394 -87.5822 274° West 252 290 4,000  Level Chicago Center
Tue 06:36:45 PM 41.5447 -87.6758 274° West 253 291 4,000 -97 Level Chicago Center
Tue 06:37:47 PM 41.5511 -87.7756 275° West 248 285 3,800 -484 Descending Chicago Center
Tue 06:38:49 PM 41.5706 -87.8489 290° West 214 246 3,000 -624 Descending Chicago Center
Tue 06:39:52 PM 41.6017 -87.9083 305° West 194 223 2,500 -240 Descending Chicago Center
Tue 06:40:54 PM 41.6461 -87.9200 349° North 181 208 2,500  Level Chicago Center
Tue 06:41:56 PM 41.6831 -87.8803 39° Northeast 171 197 2,500 -48 Level Chicago Center
Tue 06:42:58 PM 41.7161 -87.8375 44° Northeast 169 194 2,400 -484 Descending Chicago Center
Tue 06:44:00 PM 41.7494 -87.7961 43° Northeast 151 174 1,500 -823 Descending Chicago Center
Tue 06:45:02 PM 41.7758 -87.7628 43° Northeast 136 157 700 -774 Descending Chicago Center

Login

Don't have an account? Register now (free) for customized features, flight alerts, and more!